createdAt,value
2022-08-10T00:00:34.509Z,2.05
2022-08-10T00:02:40.736Z,1.90
2022-08-10T00:04:45.650Z,1.98
2022-08-10T00:06:50.609Z,1.88
2022-08-10T00:08:55.570Z,1.90
2022-08-10T00:11:00.841Z,2.08
2022-08-10T00:13:09.335Z,1.67
2022-08-10T00:15:44.682Z,1.70
2022-08-10T00:17:41.104Z,2.30
2022-08-10T00:22:11.586Z,2.50
2022-08-10T00:24:21.997Z,2.05
2022-08-10T00:26:26.925Z,2.15
2022-08-10T00:28:54.812Z,2.40
2022-08-10T00:30:59.892Z,1.70
2022-08-10T00:33:04.942Z,2.05
2022-08-10T00:35:11.181Z,1.80
2022-08-10T00:37:17.402Z,2.38
2022-08-10T00:39:22.399Z,1.95
2022-08-10T00:41:27.398Z,2.00
2022-08-10T00:43:32.310Z,1.60
2022-08-10T00:45:39.867Z,2.20
2022-08-10T00:47:44.761Z,1.92
2022-08-10T00:49:50.540Z,1.90
2022-08-10T00:51:55.848Z,1.95
2022-08-10T00:54:00.796Z,2.25
2022-08-10T00:57:12.440Z,2.00
2022-08-10T00:58:31.468Z,2.15
2022-08-10T01:00:39.661Z,2.10
2022-08-10T01:02:44.557Z,2.00
2022-08-10T01:04:59.494Z,2.20
2022-08-10T01:07:19.888Z,1.90
2022-08-10T01:09:35.044Z,2.13
2022-08-10T01:12:39.788Z,2.45
2022-08-10T01:14:20.644Z,2.20
2022-08-10T01:16:32.744Z,2.33
2022-08-10T01:18:45.741Z,2.20
2022-08-10T01:21:09.503Z,2.42
2022-08-10T01:23:48.111Z,2.10
2022-08-10T01:26:11.947Z,2.08
2022-08-10T01:28:28.142Z,2.05
2022-08-10T01:30:36.468Z,2.28
2022-08-10T01:32:50.233Z,2.30
2022-08-10T01:35:00.399Z,2.35
2022-08-10T01:37:09.469Z,2.20
2022-08-10T01:39:20.275Z,2.40
2022-08-10T01:41:29.362Z,2.20
2022-08-10T01:43:57.116Z,2.63
2022-08-10T01:46:13.702Z,2.28
2022-08-10T01:48:31.273Z,2.90
2022-08-10T01:50:59.814Z,2.17
2022-08-10T01:53:10.124Z,2.10
2022-08-10T01:55:17.996Z,1.98
2022-08-10T01:57:25.125Z,2.22
2022-08-10T01:59:35.534Z,2.22
2022-08-10T02:01:48.277Z,2.05
2022-08-10T02:04:05.165Z,2.08
2022-08-10T02:06:12.176Z,1.85
2022-08-10T02:08:20.274Z,2.13
2022-08-10T02:10:27.637Z,2.03
2022-08-10T02:12:36.387Z,1.98
2022-08-10T02:14:45.090Z,2.13
2022-08-10T02:16:54.813Z,2.50
2022-08-10T02:19:02.929Z,2.40
2022-08-10T02:21:09.735Z,2.20
2022-08-10T02:23:18.450Z,2.25
2022-08-10T02:25:41.293Z,2.22
2022-08-10T02:27:50.089Z,2.50
2022-08-10T02:29:56.590Z,2.10
2022-08-10T02:32:05.707Z,2.08
2022-08-10T02:34:15.703Z,2.28
2022-08-10T02:36:22.766Z,2.13
2022-08-10T02:38:58.179Z,2.80
2022-08-10T02:45:02.894Z,2.53
2022-08-10T02:45:27.433Z,2.35
2022-08-10T02:46:10.615Z,2.53
2022-08-10T02:48:22.694Z,2.60
2022-08-10T02:50:30.704Z,2.10
2022-08-10T02:52:45.216Z,2.60
2022-08-10T02:54:56.248Z,2.65
2022-08-10T02:57:08.377Z,2.20
2022-08-10T02:59:17.595Z,2.70
2022-08-10T03:01:26.522Z,2.55
2022-08-10T03:03:42.444Z,2.70
2022-08-10T03:05:50.517Z,2.63
2022-08-10T03:08:02.916Z,2.88
2022-08-10T03:10:13.131Z,2.40
2022-08-10T03:12:37.479Z,2.47
2022-08-10T03:14:44.717Z,3.10
2022-08-10T03:16:49.783Z,2.85
2022-08-10T03:18:59.043Z,2.65
2022-08-10T03:21:11.838Z,2.97
2022-08-10T03:23:19.612Z,2.97
2022-08-10T03:25:27.046Z,2.55
2022-08-10T03:27:33.369Z,2.90
2022-08-10T03:30:31.616Z,3.30
2022-08-10T03:32:05.037Z,2.05
2022-08-10T03:34:22.192Z,2.70
2022-08-10T03:36:41.560Z,3.05
2022-08-10T03:38:51.896Z,2.22
2022-08-10T03:40:59.875Z,2.40
2022-08-10T03:43:06.279Z,2.47
2022-08-10T03:45:13.261Z,2.75
2022-08-10T03:47:20.165Z,2.83
2022-08-10T03:49:29.727Z,2.70
2022-08-10T03:51:36.175Z,2.75
2022-08-10T03:54:04.604Z,2.85
2022-08-10T03:56:28.332Z,2.97
2022-08-10T03:58:32.826Z,2.72
2022-08-10T04:00:39.154Z,2.75
2022-08-10T04:02:48.343Z,2.30
2022-08-10T04:04:56.094Z,2.72
2022-08-10T04:07:02.084Z,3.15
2022-08-10T04:09:07.918Z,2.55
2022-08-10T04:11:13.220Z,3.10
2022-08-10T04:13:18.253Z,2.80
2022-08-10T04:15:24.764Z,2.80
2022-08-10T04:18:01.415Z,2.60
2022-08-10T04:20:00.034Z,2.75
2022-08-10T04:22:09.878Z,2.63
2022-08-10T04:24:26.851Z,2.88
2022-08-10T04:26:35.307Z,2.92
2022-08-10T04:28:40.626Z,2.70
2022-08-10T04:30:47.450Z,2.55
2022-08-10T04:32:56.481Z,2.67
2022-08-10T04:35:07.640Z,2.88
2022-08-10T04:37:13.892Z,2.85
2022-08-10T04:39:19.502Z,2.95
2022-08-10T04:41:24.663Z,2.42
2022-08-10T04:45:48.433Z,2.50
2022-08-10T04:48:00.367Z,3.03
2022-08-10T04:50:09.855Z,2.90
2022-08-10T04:52:14.995Z,2.85
2022-08-10T04:54:19.907Z,3.00
2022-08-10T04:56:31.725Z,2.85
2022-08-10T04:58:37.100Z,2.72
2022-08-10T05:00:42.038Z,2.90
2022-08-10T05:02:46.893Z,2.33
2022-08-10T05:04:51.754Z,2.20
2022-08-10T05:06:59.462Z,2.70
2022-08-10T05:09:04.384Z,2.70
2022-08-10T05:11:09.276Z,2.50
2022-08-10T05:13:14.199Z,2.60
2022-08-10T05:15:20.139Z,3.10
2022-08-10T05:17:25.754Z,2.55
2022-08-10T05:20:04.045Z,2.50
2022-08-10T05:22:04.515Z,2.97
2022-08-10T05:24:12.688Z,2.50
2022-08-10T05:26:17.558Z,2.45
2022-08-10T05:28:23.612Z,2.78
2022-08-10T05:30:32.708Z,2.67
2022-08-10T05:32:56.869Z,2.47
2022-08-10T05:35:03.241Z,2.60
2022-08-10T05:38:09.660Z,2.75
2022-08-10T05:39:38.785Z,2.50
2022-08-10T05:41:46.914Z,2.63
2022-08-10T05:43:53.975Z,2.40
2022-08-10T05:48:57.769Z,2.70
2022-08-10T05:50:49.009Z,1.97
2022-08-10T05:52:54.039Z,2.50
2022-08-10T05:55:03.075Z,2.47
2022-08-10T05:57:08.239Z,2.05
2022-08-10T05:59:13.843Z,1.90
2022-08-10T06:01:21.801Z,2.33
2022-08-10T06:03:30.579Z,2.72
2022-08-10T06:05:41.343Z,2.55
2022-08-10T06:07:51.685Z,2.33
2022-08-10T06:09:59.585Z,2.63
2022-08-10T06:12:26.710Z,2.30
2022-08-10T06:14:53.127Z,2.28
2022-08-10T06:17:05.882Z,2.47
2022-08-10T06:19:11.203Z,1.83
2022-08-10T06:21:20.689Z,2.42
2022-08-10T06:23:27.774Z,2.00
2022-08-10T06:26:11.038Z,2.15
2022-08-10T06:28:03.721Z,2.28
2022-08-10T06:30:20.009Z,2.05
2022-08-10T06:32:28.727Z,1.95
2022-08-10T06:34:36.692Z,1.80
2022-08-10T06:36:44.365Z,1.95
2022-08-10T06:38:50.190Z,2.25
2022-08-10T06:40:59.818Z,1.60
2022-08-10T06:43:10.965Z,2.20
2022-08-10T06:45:20.023Z,1.80
2022-08-10T06:47:29.377Z,1.80
2022-08-10T06:49:35.550Z,1.90
2022-08-10T06:51:45.070Z,1.75
2022-08-10T06:54:05.650Z,2.10
2022-08-10T06:56:17.506Z,1.90
2022-08-10T06:58:28.144Z,2.17
2022-08-10T07:00:34.760Z,1.92
2022-08-10T07:02:47.076Z,1.60
2022-08-10T07:04:57.410Z,1.70
2022-08-10T07:07:06.160Z,1.70
2022-08-10T07:09:15.305Z,1.45
2022-08-10T07:11:22.981Z,1.83
2022-08-10T07:14:14.146Z,2.00
2022-08-10T07:16:00.891Z,1.80
2022-08-10T07:18:07.106Z,2.03
2022-08-10T07:20:17.479Z,1.52
2022-08-10T07:23:55.023Z,1.92
2022-08-10T07:24:52.067Z,1.50
2022-08-10T07:26:59.268Z,1.95
2022-08-10T07:29:09.009Z,1.27
2022-08-10T07:31:56.398Z,1.33
2022-08-10T07:34:02.759Z,1.55
2022-08-10T07:36:09.214Z,1.80
2022-08-10T07:38:19.853Z,1.10
2022-08-10T07:40:26.489Z,1.40
2022-08-10T07:42:32.689Z,1.60
2022-08-10T07:44:42.587Z,1.45
2022-08-10T07:46:52.451Z,1.58
2022-08-10T07:49:16.108Z,1.30
2022-08-10T07:51:26.155Z,1.40
2022-08-10T07:53:35.395Z,1.50
2022-08-10T07:56:03.554Z,1.40
2022-08-10T07:58:09.929Z,1.77
2022-08-10T08:00:19.205Z,1.50
2022-08-10T08:02:30.872Z,1.30
2022-08-10T08:04:41.719Z,1.30
2022-08-10T08:06:48.268Z,1.58
2022-08-10T08:08:53.773Z,1.27
2022-08-10T08:11:00.841Z,1.20
2022-08-10T08:13:07.379Z,1.38
2022-08-10T08:16:17.456Z,1.40
2022-08-10T08:17:44.577Z,1.30
2022-08-10T08:20:00.448Z,1.40
2022-08-10T08:24:09.712Z,1.23
2022-08-10T08:24:36.443Z,1.50
2022-08-10T08:26:43.744Z,1.42
2022-08-10T08:28:55.652Z,1.63
2022-08-10T08:31:01.802Z,1.60
2022-08-10T08:33:09.979Z,1.33
2022-08-10T08:35:25.866Z,1.50
2022-08-10T08:38:32.852Z,1.30
2022-08-10T08:39:58.265Z,1.73
2022-08-10T08:42:38.488Z,1.65
2022-08-10T08:44:58.958Z,1.65
2022-08-10T08:48:04.190Z,1.88
2022-08-10T08:50:10.208Z,1.50
2022-08-10T08:52:29.020Z,2.13
2022-08-10T08:54:47.094Z,4.07
2022-08-10T08:57:01.241Z,1.63
2022-08-10T08:59:24.635Z,2.05
2022-08-10T09:01:47.982Z,1.30
2022-08-10T09:04:19.888Z,1.60
2022-08-10T09:06:55.364Z,1.83
2022-08-10T09:09:19.702Z,1.60
2022-08-10T09:11:41.283Z,1.40
2022-08-10T09:13:56.781Z,1.30
2022-08-10T09:16:11.555Z,1.83
2022-08-10T09:18:22.484Z,1.40
2022-08-10T09:20:37.186Z,1.88
2022-08-10T09:22:51.661Z,1.77
2022-08-10T09:25:00.823Z,1.52
2022-08-10T09:27:12.001Z,1.83
2022-08-10T09:29:23.591Z,1.58
2022-08-10T09:31:39.315Z,1.40
2022-08-10T09:36:25.143Z,1.90
2022-08-10T09:36:33.002Z,1.60
2022-08-10T09:38:54.993Z,1.35
2022-08-10T09:41:13.033Z,1.55
2022-08-10T09:43:28.496Z,1.88
2022-08-10T09:45:42.936Z,1.70
2022-08-10T09:48:02.127Z,1.80
2022-08-10T09:50:23.346Z,1.98
2022-08-10T09:52:37.694Z,1.60
2022-08-10T09:54:56.053Z,1.87
2022-08-10T09:59:59.930Z,1.70
2022-08-10T10:02:21.508Z,1.67
2022-08-10T10:04:40.264Z,1.48
2022-08-10T10:06:54.892Z,1.55
2022-08-10T10:09:11.047Z,1.43
2022-08-10T10:11:29.347Z,1.45
2022-08-10T10:14:02.505Z,1.60
2022-08-10T10:16:26.295Z,1.60
2022-08-10T10:18:45.162Z,1.60
2022-08-10T10:20:58.445Z,1.60
2022-08-10T10:23:15.392Z,1.75
2022-08-10T10:25:49.830Z,1.50
2022-08-10T10:28:03.651Z,1.52
2022-08-10T10:30:13.458Z,2.15
2022-08-10T10:32:24.976Z,1.80
2022-08-10T10:34:43.630Z,2.17
2022-08-10T10:36:52.376Z,1.35
2022-08-10T10:38:58.231Z,1.60
2022-08-10T10:41:11.780Z,1.23
2022-08-10T10:43:45.189Z,1.40
2022-08-10T10:46:01.967Z,1.88
2022-08-10T10:48:29.040Z,1.45
2022-08-10T10:50:42.064Z,1.40
2022-08-10T10:52:54.422Z,1.63
2022-08-10T10:55:11.926Z,1.60
2022-08-10T10:58:00.492Z,1.50
2022-08-10T11:00:03.669Z,1.42
2022-08-10T11:02:21.994Z,1.52
2022-08-10T11:04:30.072Z,1.50
2022-08-10T11:06:48.052Z,1.45
2022-08-10T11:08:58.888Z,1.20
2022-08-10T11:11:59.658Z,1.60
2022-08-10T11:14:28.535Z,1.85
2022-08-10T11:16:16.807Z,1.40
2022-08-10T11:18:33.800Z,1.75
2022-08-10T11:20:45.158Z,1.45
2022-08-10T11:23:06.770Z,1.90
2022-08-10T11:25:17.678Z,1.95
2022-08-10T11:27:34.872Z,1.58
2022-08-10T11:29:49.517Z,1.52
2022-08-10T11:32:05.757Z,1.60
2022-08-10T11:34:48.698Z,1.77
2022-08-10T11:36:48.082Z,1.63
2022-08-10T11:39:18.422Z,1.85
2022-08-10T11:42:09.117Z,1.52
2022-08-10T11:44:06.258Z,1.23
2022-08-10T11:46:28.443Z,2.20
2022-08-10T11:48:53.125Z,1.15
2022-08-10T11:51:04.360Z,1.25
2022-08-10T11:53:20.348Z,1.50
2022-08-10T11:55:27.249Z,1.35
2022-08-10T11:57:54.642Z,1.25
2022-08-10T11:59:58.256Z,1.05
2022-08-10T12:02:05.166Z,1.50
2022-08-10T12:04:13.898Z,1.50
2022-08-10T12:06:45.482Z,1.25
2022-08-10T12:10:07.324Z,1.30
2022-08-10T12:11:24.681Z,1.50
2022-08-10T12:13:34.213Z,1.50
2022-08-10T12:15:46.450Z,1.40
2022-08-10T12:17:56.555Z,1.40
2022-08-10T12:20:09.601Z,1.40
2022-08-10T12:22:18.077Z,1.67
2022-08-10T12:24:36.349Z,1.17
2022-08-10T12:26:47.545Z,1.77
2022-08-10T12:28:58.971Z,1.42
2022-08-10T12:31:09.269Z,1.50
2022-08-10T12:33:24.215Z,1.30
2022-08-10T12:35:40.140Z,1.42
2022-08-10T12:37:54.945Z,1.20
2022-08-10T12:40:33.905Z,1.13
2022-08-10T12:42:41.077Z,1.65
2022-08-10T12:44:52.810Z,1.60
2022-08-10T12:47:05.762Z,1.13
2022-08-10T12:49:24.023Z,1.30
2022-08-10T12:51:33.823Z,1.52
2022-08-10T12:53:52.949Z,1.35
2022-08-10T12:56:01.709Z,1.42
2022-08-10T12:58:57.173Z,1.63
2022-08-10T13:00:53.834Z,1.58
2022-08-10T13:03:04.718Z,1.45
2022-08-10T13:05:13.768Z,1.50
2022-08-10T13:08:24.284Z,1.50
2022-08-10T13:09:54.778Z,1.23
2022-08-10T13:12:35.886Z,1.90
2022-08-10T13:14:34.192Z,1.20
2022-08-10T13:16:40.068Z,1.40
2022-08-10T13:18:46.720Z,1.70
2022-08-10T13:20:54.798Z,1.73
2022-08-10T13:23:06.136Z,1.50
2022-08-10T13:25:13.466Z,1.25
2022-08-10T13:27:25.972Z,1.40
2022-08-10T13:29:50.978Z,1.13
2022-08-10T13:32:08.908Z,1.90
2022-08-10T13:34:42.809Z,1.60
2022-08-10T13:36:52.070Z,1.33
2022-08-10T13:39:02.784Z,1.52
2022-08-10T13:41:08.855Z,1.60
2022-08-10T13:43:15.253Z,1.50
2022-08-10T13:45:23.092Z,1.48
2022-08-10T13:47:42.400Z,1.60
2022-08-10T13:49:59.013Z,1.48
2022-08-10T13:52:06.308Z,1.45
2022-08-10T13:54:14.611Z,1.02
2022-08-10T13:56:20.546Z,1.30
2022-08-10T13:58:29.240Z,1.50
2022-08-10T14:00:38.519Z,1.20
2022-08-10T14:02:48.920Z,1.42
2022-08-10T14:04:55.476Z,1.40
2022-08-10T14:07:03.257Z,1.67
2022-08-10T14:09:15.914Z,1.27
2022-08-10T14:11:23.217Z,1.50
2022-08-10T14:13:30.643Z,1.30
2022-08-10T14:15:38.526Z,1.40
2022-08-10T14:17:45.220Z,1.75
2022-08-10T14:19:58.725Z,1.30
2022-08-10T14:22:04.968Z,1.45
2022-08-10T14:24:26.054Z,1.80
2022-08-10T14:26:33.107Z,2.38
2022-08-10T14:28:42.771Z,1.40
2022-08-10T14:30:50.250Z,1.20
2022-08-10T14:32:56.776Z,1.45
2022-08-10T14:36:21.752Z,1.30
2022-08-10T14:37:37.870Z,1.90
2022-08-10T14:39:50.575Z,1.08
2022-08-10T14:42:03.156Z,1.40
2022-08-10T14:44:16.047Z,1.40
2022-08-10T14:46:23.807Z,1.80
2022-08-10T14:48:32.955Z,1.42
2022-08-10T14:50:38.778Z,1.60
2022-08-10T14:53:02.543Z,1.60
2022-08-10T14:55:19.728Z,1.45
2022-08-10T14:58:16.877Z,1.20
2022-08-10T15:00:25.444Z,1.60
2022-08-10T15:02:38.603Z,1.65
2022-08-10T15:04:47.380Z,1.10
2022-08-10T15:06:57.357Z,1.30
2022-08-10T15:09:12.685Z,1.50
2022-08-10T15:12:15.571Z,1.25
2022-08-10T15:14:14.769Z,0.98
2022-08-10T15:16:20.732Z,1.50
2022-08-10T15:18:27.855Z,1.65
2022-08-10T15:20:34.763Z,1.05
2022-08-10T15:22:40.726Z,1.10
2022-08-10T15:25:04.758Z,1.10
2022-08-10T15:27:14.296Z,1.25
2022-08-10T15:29:25.728Z,1.23
2022-08-10T15:31:34.964Z,1.10
2022-08-10T15:34:04.247Z,1.10
2022-08-10T15:36:24.274Z,1.40
2022-08-10T15:38:36.269Z,1.35
2022-08-10T15:40:50.401Z,1.17
2022-08-10T15:43:05.789Z,1.30
2022-08-10T15:45:25.806Z,1.60
2022-08-10T15:47:46.271Z,1.58
2022-08-10T15:49:56.216Z,1.63
2022-08-10T15:52:06.843Z,1.67
2022-08-10T15:54:16.099Z,1.60
2022-08-10T15:56:28.190Z,1.75
2022-08-10T15:58:41.279Z,2.13
2022-08-10T16:00:52.020Z,1.33
2022-08-10T16:03:01.606Z,1.48
2022-08-10T16:05:14.277Z,1.38
2022-08-10T16:07:23.052Z,1.77
2022-08-10T16:10:10.818Z,1.60
2022-08-10T16:12:29.338Z,1.60
2022-08-10T16:14:40.455Z,1.42
2022-08-10T16:16:49.353Z,1.35
2022-08-10T16:18:56.539Z,1.77
2022-08-10T16:21:03.737Z,1.60
2022-08-10T16:23:13.967Z,1.95
2022-08-10T16:25:20.673Z,1.60
2022-08-10T16:27:29.333Z,1.70
2022-08-10T16:29:55.967Z,1.40
2022-08-10T16:32:04.337Z,1.30
2022-08-10T16:34:17.195Z,2.03
2022-08-10T16:36:23.547Z,1.25
2022-08-10T16:38:29.876Z,1.40
2022-08-10T16:40:35.822Z,1.45
2022-08-10T16:42:45.133Z,2.28
2022-08-10T16:44:59.714Z,1.48
2022-08-10T16:47:06.389Z,1.60
2022-08-10T16:49:12.908Z,1.70
2022-08-10T16:51:23.353Z,1.85
2022-08-10T16:53:30.210Z,1.70
2022-08-10T16:55:47.496Z,1.58
2022-08-10T16:57:58.642Z,1.70
2022-08-10T17:00:09.369Z,1.92
2022-08-10T17:02:18.595Z,1.55
2022-08-10T17:04:26.285Z,1.50
2022-08-10T17:06:33.712Z,1.40
2022-08-10T17:08:48.141Z,1.58
2022-08-10T17:10:54.907Z,1.65
2022-08-10T17:13:01.402Z,1.63
2022-08-10T17:15:11.966Z,1.60
2022-08-10T17:17:22.598Z,1.50
2022-08-10T17:19:29.444Z,1.70
2022-08-10T17:21:40.937Z,1.60
2022-08-10T17:23:59.140Z,1.73
2022-08-10T17:26:12.212Z,1.80
2022-08-10T17:30:58.178Z,1.60
2022-08-10T17:33:07.912Z,1.92
2022-08-10T17:35:23.353Z,1.15
2022-08-10T17:37:33.550Z,1.70
2022-08-10T17:39:44.270Z,1.40
2022-08-10T17:41:52.396Z,1.30
2022-08-10T17:44:03.233Z,1.52
2022-08-10T17:46:14.971Z,1.67
2022-08-10T17:48:23.766Z,1.90
2022-08-10T17:50:33.167Z,1.23
2022-08-10T17:52:38.762Z,1.50
2022-08-10T17:54:45.591Z,1.58
2022-08-10T17:56:54.225Z,1.30
2022-08-10T17:59:03.077Z,1.92
2022-08-10T18:01:41.024Z,2.22
2022-08-10T18:03:39.423Z,1.65
2022-08-10T18:05:45.970Z,1.90
2022-08-10T18:07:55.943Z,1.70
2022-08-10T18:10:03.684Z,1.60
2022-08-10T18:12:17.854Z,1.80
2022-08-10T18:14:24.964Z,1.90
2022-08-10T18:16:34.805Z,1.80
2022-08-10T18:18:41.394Z,1.77
2022-08-10T18:20:46.509Z,2.10
2022-08-10T18:22:53.382Z,1.83
2022-08-10T18:25:00.882Z,1.63
2022-08-10T18:27:08.446Z,1.80
2022-08-10T18:29:19.398Z,1.70
2022-08-10T18:31:27.986Z,2.10
2022-08-10T18:33:38.643Z,2.10
2022-08-10T18:35:46.727Z,1.50
2022-08-10T18:37:54.761Z,1.60
2022-08-10T18:40:05.061Z,2.03
2022-08-10T18:42:15.125Z,1.75
2022-08-10T18:44:23.912Z,1.83
2022-08-10T18:46:32.672Z,1.55
2022-08-10T18:48:44.903Z,1.73
2022-08-10T18:50:53.585Z,1.70
2022-08-10T18:53:03.741Z,1.95
2022-08-10T18:55:24.579Z,2.17
2022-08-10T18:57:42.299Z,1.88
2022-08-10T19:00:18.410Z,1.70
2022-08-10T19:02:40.696Z,1.70
2022-08-10T19:05:07.055Z,1.80
2022-08-10T19:07:52.270Z,1.98
2022-08-10T19:10:11.299Z,1.92
2022-08-10T19:12:33.671Z,1.88
2022-08-10T19:14:45.148Z,1.45
2022-08-10T19:17:09.972Z,1.92
2022-08-10T19:19:28.897Z,1.60
2022-08-10T19:21:44.500Z,1.80
2022-08-10T19:23:58.344Z,1.90
2022-08-10T19:26:37.998Z,1.75
2022-08-10T19:28:53.454Z,1.80
2022-08-10T19:31:05.730Z,1.98
2022-08-10T19:33:25.243Z,1.70
2022-08-10T19:36:03.928Z,1.40
2022-08-10T19:38:32.882Z,1.67
2022-08-10T19:40:45.923Z,1.98
2022-08-10T19:42:59.164Z,1.70
2022-08-10T19:45:55.463Z,2.13
2022-08-10T19:47:47.924Z,2.35
2022-08-10T19:50:00.881Z,1.88
2022-08-10T19:52:12.411Z,2.00
2022-08-10T19:54:27.757Z,2.03
2022-08-10T19:56:45.227Z,2.38
2022-08-10T19:58:59.352Z,1.90
2022-08-10T20:01:07.002Z,1.70
2022-08-10T20:03:21.819Z,2.13
2022-08-10T20:05:35.246Z,2.00
2022-08-10T20:07:49.949Z,1.67
2022-08-10T20:10:06.822Z,2.27
2022-08-10T20:12:21.604Z,2.20
2022-08-10T20:14:32.640Z,1.80
2022-08-10T20:16:39.961Z,2.00
2022-08-10T20:18:50.566Z,1.90
2022-08-10T20:21:01.923Z,2.08
2022-08-10T20:23:20.995Z,2.80
2022-08-10T20:25:32.357Z,2.05
2022-08-10T20:28:00.294Z,2.03
2022-08-10T20:30:09.795Z,2.17
2022-08-10T20:32:20.627Z,1.98
2022-08-10T20:34:32.998Z,2.35
2022-08-10T20:36:50.001Z,1.70
2022-08-10T20:39:06.383Z,1.95
2022-08-10T20:41:31.351Z,1.90
2022-08-10T20:43:42.399Z,1.90
2022-08-10T20:46:09.443Z,1.83
2022-08-10T20:48:21.557Z,2.38
2022-08-10T20:50:37.017Z,2.60
2022-08-10T20:52:44.697Z,2.10
2022-08-10T20:54:55.284Z,2.15
2022-08-10T20:57:56.659Z,1.70
2022-08-10T21:00:04.153Z,2.10
2022-08-10T21:02:33.470Z,2.15
2022-08-10T21:04:53.384Z,2.03
2022-08-10T21:07:28.170Z,2.00
2022-08-10T21:10:04.590Z,2.00
2022-08-10T21:12:39.114Z,2.10
2022-08-10T21:14:52.540Z,1.98
2022-08-10T21:17:15.986Z,1.65
2022-08-10T21:19:37.548Z,2.13
2022-08-10T21:24:25.655Z,1.90
2022-08-10T21:25:41.672Z,2.13
2022-08-10T21:26:45.770Z,2.28
2022-08-10T21:29:13.047Z,1.70
2022-08-10T21:31:41.688Z,1.90
2022-08-10T21:33:55.526Z,2.17
2022-08-10T21:36:09.909Z,1.90
2022-08-10T21:38:21.563Z,1.73
2022-08-10T21:40:35.519Z,2.25
2022-08-10T21:43:02.890Z,2.00
2022-08-10T21:45:57.896Z,2.00
2022-08-10T21:48:20.285Z,2.10
2022-08-10T21:50:58.386Z,2.17
2022-08-10T21:53:43.948Z,2.15
2022-08-10T21:56:14.228Z,2.13
2022-08-10T21:58:38.851Z,2.28
2022-08-10T22:01:06.798Z,2.10
2022-08-10T22:03:27.491Z,1.98
2022-08-10T22:06:02.632Z,2.05
2022-08-10T22:08:20.311Z,2.17
2022-08-10T22:10:42.296Z,2.25
2022-08-10T22:13:02.362Z,2.30
2022-08-10T22:15:22.867Z,2.03
2022-08-10T22:18:10.173Z,1.88
2022-08-10T22:20:32.350Z,1.90
2022-08-10T22:22:58.755Z,1.85
2022-08-10T22:27:47.166Z,1.70
2022-08-10T22:30:10.255Z,2.78
2022-08-10T22:32:40.490Z,2.03
2022-08-10T22:35:30.662Z,2.20
2022-08-10T22:37:56.792Z,2.05
2022-08-10T22:42:58.937Z,2.10
2022-08-10T22:45:24.922Z,1.95
2022-08-10T22:47:45.219Z,2.08
2022-08-10T22:49:53.922Z,2.00
2022-08-10T22:52:13.923Z,1.92
2022-08-10T22:54:36.561Z,2.50
2022-08-10T22:56:55.581Z,2.42
2022-08-10T22:59:00.649Z,1.90
2022-08-10T23:01:35.247Z,3.42
2022-08-10T23:03:49.880Z,2.22
2022-08-10T23:06:03.941Z,1.77
2022-08-10T23:08:29.620Z,2.30
2022-08-10T23:10:44.109Z,2.08
2022-08-10T23:12:52.513Z,1.80
2022-08-10T23:15:12.296Z,2.10
2022-08-10T23:18:01.235Z,1.92
2022-08-10T23:20:06.262Z,1.80
2022-08-10T23:22:16.668Z,2.17
2022-08-10T23:24:31.627Z,2.28
2022-08-10T23:26:39.268Z,2.08
2022-08-10T23:28:58.355Z,2.30
2022-08-10T23:31:13.931Z,2.30
2022-08-10T23:33:37.690Z,1.90
2022-08-10T23:36:30.965Z,2.13
2022-08-10T23:38:19.527Z,2.20
2022-08-10T23:40:25.715Z,2.17
2022-08-10T23:42:40.094Z,2.15
2022-08-10T23:44:47.026Z,1.80
2022-08-10T23:47:05.681Z,2.38
2022-08-10T23:49:14.555Z,2.00
2022-08-10T23:51:21.270Z,2.00
2022-08-10T23:53:34.556Z,2.33
2022-08-10T23:55:49.542Z,1.90
2022-08-10T23:57:59.618Z,2.28
